createdAt,value
2019-02-25T00:01:49.246Z,4.60
2019-02-25T00:04:19.586Z,4.33
2019-02-25T00:06:50.281Z,4.47
2019-02-25T00:09:20.516Z,4.60
2019-02-25T00:11:51.539Z,4.70
2019-02-25T00:14:22.154Z,4.40
2019-02-25T00:16:52.774Z,4.83
2019-02-25T00:19:23.325Z,4.80
2019-02-25T00:21:54.014Z,4.90
2019-02-25T00:24:25.229Z,4.70
2019-02-25T00:26:56.270Z,4.70
2019-02-25T00:29:26.536Z,4.57
2019-02-25T00:31:57.222Z,4.57
2019-02-25T00:34:27.500Z,4.80
2019-02-25T00:36:57.755Z,4.43
2019-02-25T00:39:29.609Z,4.50
2019-02-25T00:42:00.577Z,4.37
2019-02-25T00:44:30.883Z,4.63
2019-02-25T00:47:02.203Z,4.10
2019-02-25T00:49:32.842Z,4.90
2019-02-25T00:52:06.049Z,4.80
2019-02-25T00:54:36.403Z,4.40
2019-02-25T00:57:08.850Z,4.33
2019-02-25T00:59:38.751Z,5.07
2019-02-25T01:02:09.164Z,4.47
2019-02-25T01:04:42.380Z,4.90
2019-02-25T01:07:12.999Z,4.83
2019-02-25T01:09:43.805Z,5.07
2019-02-25T01:12:14.741Z,4.50
2019-02-25T01:14:45.135Z,4.63
2019-02-25T01:17:16.350Z,4.73
2019-02-25T01:19:46.904Z,4.90
2019-02-25T01:22:17.803Z,4.50
2019-02-25T01:24:51.206Z,5.17
2019-02-25T01:27:21.895Z,5.53
2019-02-25T01:29:56.045Z,4.67
2019-02-25T01:32:26.670Z,4.90
2019-02-25T01:34:56.426Z,4.67
2019-02-25T01:37:26.716Z,4.57
2019-02-25T01:39:57.503Z,4.53
2019-02-25T01:42:27.827Z,4.37
2019-02-25T01:44:58.360Z,4.37
2019-02-25T01:47:28.660Z,4.13
2019-02-25T01:49:59.220Z,4.90
2019-02-25T01:52:29.546Z,4.97
2019-02-25T01:54:59.895Z,4.30
2019-02-25T01:57:30.310Z,4.50
2019-02-25T02:00:01.814Z,4.20
2019-02-25T02:02:33.417Z,4.40
2019-02-25T02:05:04.061Z,4.40
2019-02-25T02:07:36.405Z,4.40
2019-02-25T02:10:08.804Z,4.10
2019-02-25T02:12:39.465Z,4.53
2019-02-25T02:15:18.242Z,4.20
2019-02-25T02:17:48.065Z,4.37
2019-02-25T02:20:18.578Z,4.27
2019-02-25T02:22:49.437Z,4.20
2019-02-25T02:25:20.116Z,4.57
2019-02-25T02:27:55.531Z,4.30
2019-02-25T02:30:28.421Z,4.20
2019-02-25T02:32:58.928Z,4.30
2019-02-25T02:35:29.758Z,4.60
2019-02-25T02:38:02.153Z,4.33
2019-02-25T02:40:35.330Z,4.50
2019-02-25T02:43:07.574Z,4.40
2019-02-25T02:45:41.540Z,4.53
2019-02-25T02:48:17.928Z,4.20
2019-02-25T02:50:48.960Z,4.30
2019-02-25T02:53:21.090Z,4.47
2019-02-25T02:55:52.281Z,4.60
2019-02-25T02:58:23.031Z,4.00
2019-02-25T03:00:53.666Z,4.40
2019-02-25T03:03:24.617Z,3.50
2019-02-25T03:05:54.979Z,4.30
2019-02-25T03:08:25.474Z,4.03
2019-02-25T03:10:56.200Z,4.20
2019-02-25T03:13:29.637Z,3.93
2019-02-25T03:16:00.512Z,4.30
2019-02-25T03:18:30.960Z,4.60
2019-02-25T03:21:01.806Z,4.07
2019-02-25T03:23:32.766Z,4.10
2019-02-25T03:26:03.296Z,3.97
2019-02-25T03:28:34.239Z,4.30
2019-02-25T03:31:04.784Z,4.50
2019-02-25T03:33:35.664Z,4.07
2019-02-25T03:36:07.143Z,3.90
2019-02-25T03:38:37.448Z,4.37
2019-02-25T03:41:08.002Z,4.37
2019-02-25T03:43:38.324Z,4.63
2019-02-25T03:46:09.101Z,3.70
2019-02-25T03:48:39.467Z,4.07
2019-02-25T03:51:13.481Z,4.07
2019-02-25T03:53:44.026Z,4.40
2019-02-25T03:56:16.009Z,4.27
2019-02-25T03:58:46.329Z,4.47
2019-02-25T04:01:17.449Z,3.70
2019-02-25T04:03:48.100Z,4.20
2019-02-25T04:06:18.716Z,4.60
2019-02-25T04:08:50.342Z,4.13
2019-02-25T04:11:21.091Z,4.03
2019-02-25T04:13:51.436Z,4.27
2019-02-25T04:16:22.274Z,4.23
2019-02-25T04:18:52.808Z,3.90
2019-02-25T04:21:25.419Z,4.23
2019-02-25T04:23:55.707Z,3.97
2019-02-25T04:26:26.537Z,4.43
2019-02-25T04:28:56.787Z,4.20
2019-02-25T04:31:28.585Z,4.53
2019-02-25T04:33:58.948Z,4.87
2019-02-25T04:36:29.690Z,4.00
2019-02-25T04:39:06.714Z,4.40
2019-02-25T04:41:37.388Z,3.93
2019-02-25T04:44:07.791Z,4.57
2019-02-25T04:46:38.551Z,4.53
2019-02-25T04:49:08.955Z,4.30
2019-02-25T04:51:39.678Z,4.37
2019-02-25T04:54:09.989Z,4.27
2019-02-25T04:56:40.547Z,4.77
2019-02-25T04:59:11.247Z,4.17
2019-02-25T05:01:45.319Z,5.37
2019-02-25T05:04:16.356Z,4.60
2019-02-25T05:06:47.660Z,4.47
2019-02-25T05:09:20.438Z,4.47
2019-02-25T05:11:51.635Z,4.40
2019-02-25T05:14:22.076Z,4.60
2019-02-25T05:16:53.040Z,4.77
2019-02-25T05:19:25.168Z,4.70
2019-02-25T05:21:55.976Z,4.40
2019-02-25T05:24:26.642Z,4.80
2019-02-25T05:26:58.704Z,4.53
2019-02-25T05:29:31.370Z,5.27
2019-02-25T05:32:01.748Z,4.50
2019-02-25T05:34:32.183Z,4.67
2019-02-25T05:37:03.547Z,4.63
2019-02-25T05:39:34.467Z,4.97
2019-02-25T05:42:05.664Z,5.30
2019-02-25T05:44:36.631Z,4.93
2019-02-25T05:47:08.399Z,5.23
2019-02-25T05:49:38.683Z,4.90
2019-02-25T05:52:11.825Z,5.97
2019-02-25T05:54:41.603Z,4.83
2019-02-25T05:57:12.654Z,4.77
2019-02-25T05:59:43.145Z,4.73
2019-02-25T06:02:13.787Z,4.90
2019-02-25T06:04:45.010Z,5.00
2019-02-25T06:07:19.999Z,4.80
2019-02-25T06:09:53.535Z,5.17
2019-02-25T06:12:29.920Z,5.00
2019-02-25T06:15:03.767Z,5.00
2019-02-25T06:17:48.566Z,5.30
2019-02-25T06:20:21.229Z,5.40
2019-02-25T06:23:00.643Z,5.57
2019-02-25T06:25:35.001Z,5.77
2019-02-25T06:28:12.181Z,5.40
2019-02-25T06:30:44.233Z,5.07
2019-02-25T06:33:15.137Z,5.33
2019-02-25T06:35:45.553Z,4.77
2019-02-25T06:38:17.462Z,5.27
2019-02-25T06:40:48.468Z,5.23
2019-02-25T06:43:20.573Z,7.17
2019-02-25T06:45:51.095Z,5.27
2019-02-25T06:48:22.000Z,6.13
2019-02-25T06:50:53.135Z,7.30
2019-02-25T06:53:25.386Z,5.50
2019-02-25T06:55:55.991Z,5.80
2019-02-25T06:58:29.362Z,5.90
2019-02-25T07:01:01.153Z,10.10
2019-02-25T07:03:33.621Z,6.80
2019-02-25T07:06:26.597Z,5.60
2019-02-25T07:09:16.135Z,6.30
2019-02-25T07:12:00.726Z,6.60
2019-02-25T07:14:47.477Z,6.57
2019-02-25T07:17:32.012Z,7.10
2019-02-25T07:20:25.294Z,6.33
2019-02-25T07:23:16.143Z,5.67
2019-02-25T07:26:21.769Z,6.17
2019-02-25T07:29:03.921Z,5.53
2019-02-25T07:31:52.111Z,5.93
2019-02-25T07:34:46.292Z,6.00
2019-02-25T07:37:44.173Z,5.43
2019-02-25T07:40:47.786Z,6.23
2019-02-25T07:43:30.984Z,6.33
2019-02-25T07:46:29.206Z,6.70
2019-02-25T07:49:18.612Z,6.47
2019-02-25T07:52:08.606Z,6.30
2019-02-25T07:54:56.179Z,6.17
2019-02-25T07:57:42.551Z,6.27
2019-02-25T08:00:44.461Z,5.70
2019-02-25T08:03:27.261Z,5.80
2019-02-25T08:06:34.139Z,6.60
2019-02-25T08:09:32.628Z,6.50
2019-02-25T08:12:24.402Z,6.33
2019-02-25T08:15:32.883Z,6.07
2019-02-25T08:18:28.379Z,6.70
2019-02-25T08:21:17.927Z,6.73
2019-02-25T08:24:08.118Z,6.80
2019-02-25T08:26:58.207Z,6.43
2019-02-25T08:29:56.496Z,6.90
2019-02-25T08:32:40.011Z,6.70
2019-02-25T08:35:36.281Z,6.30
2019-02-25T08:38:36.570Z,6.13
2019-02-25T08:41:19.819Z,6.83
2019-02-25T08:44:03.518Z,6.10
2019-02-25T08:46:52.122Z,6.43
2019-02-25T08:49:26.451Z,5.97
2019-02-25T08:51:56.791Z,7.03
2019-02-25T08:54:30.085Z,6.20
2019-02-25T08:57:04.333Z,7.63
2019-02-25T08:59:37.138Z,6.93
2019-02-25T09:02:07.511Z,6.50
2019-02-25T09:04:38.406Z,7.47
2019-02-25T09:07:09.325Z,7.60
2019-02-25T09:09:39.842Z,7.07
2019-02-25T09:12:13.043Z,7.70
2019-02-25T09:14:43.735Z,7.63
2019-02-25T09:17:16.985Z,7.27
2019-02-25T09:23:25.613Z,7.47
2019-02-25T09:25:57.211Z,7.53
2019-02-25T09:28:28.007Z,6.97
2019-02-25T09:30:58.642Z,7.37
2019-02-25T09:33:29.368Z,7.47
2019-02-25T09:36:02.699Z,7.33
2019-02-25T09:38:37.811Z,7.67
2019-02-25T09:41:08.734Z,7.07
2019-02-25T09:43:40.545Z,6.83
2019-02-25T09:46:11.511Z,6.77
2019-02-25T09:48:41.856Z,7.17
2019-02-25T09:51:14.946Z,7.37
2019-02-25T09:53:46.003Z,7.57
2019-02-25T09:56:16.654Z,7.03
2019-02-25T09:58:48.550Z,7.50
2019-02-25T10:01:19.096Z,7.67
2019-02-25T10:03:52.413Z,7.47
2019-02-25T10:06:23.342Z,7.27
2019-02-25T10:09:23.743Z,7.20
2019-02-25T10:11:54.493Z,7.03
2019-02-25T10:14:25.128Z,7.50
2019-02-25T10:16:56.776Z,7.10
2019-02-25T10:19:28.593Z,7.70
2019-02-25T10:21:59.802Z,7.70
2019-02-25T10:24:32.994Z,7.23
2019-02-25T10:27:04.437Z,8.03
2019-02-25T10:29:35.259Z,10.87
2019-02-25T10:32:06.576Z,7.20
2019-02-25T10:34:37.142Z,7.07
2019-02-25T10:37:12.973Z,7.90
2019-02-25T10:39:45.485Z,7.20
2019-02-25T10:42:17.665Z,7.30
2019-02-25T10:44:48.370Z,7.13
2019-02-25T10:47:21.439Z,7.30
2019-02-25T10:49:56.434Z,7.50
2019-02-25T10:52:27.961Z,8.10
2019-02-25T10:55:00.471Z,9.03
2019-02-25T10:57:32.383Z,7.60
2019-02-25T11:00:04.961Z,6.90
2019-02-25T11:02:44.014Z,7.20
2019-02-25T11:05:10.397Z,6.93
2019-02-25T11:07:42.023Z,7.50
2019-02-25T11:10:25.877Z,7.13
2019-02-25T11:12:59.729Z,7.33
2019-02-25T11:15:33.717Z,7.07
2019-02-25T11:18:08.873Z,7.30
2019-02-25T11:20:40.288Z,7.50
2019-02-25T11:23:12.857Z,7.63
2019-02-25T11:25:46.280Z,7.07
2019-02-25T11:28:25.570Z,7.10
2019-02-25T11:30:51.380Z,7.63
2019-02-25T11:33:23.222Z,7.20
2019-02-25T11:35:55.345Z,7.33
2019-02-25T11:38:26.142Z,7.20
2019-02-25T11:40:57.476Z,7.17
2019-02-25T11:43:28.079Z,7.20
2019-02-25T11:45:59.923Z,7.37
2019-02-25T11:48:32.581Z,7.50
2019-02-25T11:51:03.512Z,7.37
2019-02-25T11:53:40.523Z,7.67
2019-02-25T11:56:11.527Z,7.30
2019-02-25T11:58:42.793Z,5.80
2019-02-25T12:01:19.447Z,6.10
2019-02-25T12:03:56.885Z,6.10
2019-02-25T12:06:27.588Z,6.03
2019-02-25T12:09:00.040Z,5.73
2019-02-25T12:11:33.699Z,6.60
2019-02-25T12:14:04.202Z,5.77
2019-02-25T12:16:36.251Z,6.30
2019-02-25T12:19:06.985Z,7.40
2019-02-25T12:21:37.833Z,8.53
2019-02-25T12:24:09.692Z,7.70
2019-02-25T12:26:42.397Z,7.20
2019-02-25T12:29:13.789Z,15.33
2019-02-25T12:31:45.203Z,8.33
2019-02-25T12:34:15.643Z,7.80
2019-02-25T12:36:46.655Z,7.67
2019-02-25T12:39:19.357Z,7.97
2019-02-25T12:41:53.085Z,8.47
2019-02-25T12:44:25.146Z,8.10
2019-02-25T12:46:57.108Z,9.10
2019-02-25T12:49:30.991Z,7.83
2019-02-25T12:52:03.776Z,8.50
2019-02-25T12:54:34.800Z,7.77
2019-02-25T12:57:05.882Z,7.07
2019-02-25T12:59:38.423Z,7.70
2019-02-25T13:02:09.599Z,7.67
2019-02-25T13:04:40.190Z,4.40
2019-02-25T13:07:12.250Z,4.70
2019-02-25T13:09:43.088Z,7.57
2019-02-25T13:12:13.559Z,7.40
2019-02-25T13:14:45.374Z,6.67
2019-02-25T13:17:31.153Z,6.20
2019-02-25T13:20:02.274Z,7.73
2019-02-25T13:22:33.347Z,8.57
2019-02-25T13:25:08.058Z,7.63
2019-02-25T13:27:39.402Z,8.17
2019-02-25T13:30:14.235Z,8.23
2019-02-25T13:32:45.721Z,7.80
2019-02-25T13:35:16.379Z,7.70
2019-02-25T13:37:47.880Z,6.40
2019-02-25T13:40:18.946Z,4.77
2019-02-25T13:43:00.290Z,5.10
2019-02-25T13:45:31.773Z,4.87
2019-02-25T13:48:06.803Z,4.83
2019-02-25T13:50:37.821Z,7.03
2019-02-25T13:53:07.726Z,8.30
2019-02-25T13:55:38.199Z,8.83
2019-02-25T13:58:08.870Z,8.00
2019-02-25T14:00:39.633Z,8.70
2019-02-25T14:03:29.529Z,8.00
2019-02-25T14:06:00.183Z,9.57
2019-02-25T14:08:31.694Z,8.47
2019-02-25T14:11:03.837Z,7.83
2019-02-25T14:13:36.108Z,8.03
2019-02-25T14:16:05.952Z,6.83
2019-02-25T14:18:35.664Z,7.47
2019-02-25T14:21:06.836Z,4.70
2019-02-25T14:23:38.290Z,7.70
2019-02-25T14:26:12.982Z,4.20
2019-02-25T14:28:46.721Z,8.00
2019-02-25T14:31:16.768Z,8.57
2019-02-25T14:33:52.079Z,8.63
2019-02-25T14:36:21.884Z,7.93
2019-02-25T14:38:54.021Z,6.93
2019-02-25T14:44:05.599Z,7.97
2019-02-25T14:46:38.997Z,8.67
2019-02-25T14:49:09.541Z,9.00
2019-02-25T14:51:41.380Z,8.10
2019-02-25T14:54:15.099Z,8.80
2019-02-25T14:56:51.909Z,9.23
2019-02-25T14:59:22.338Z,8.87
2019-02-25T15:01:53.279Z,7.20
2019-02-25T15:04:24.406Z,9.00
2019-02-25T15:06:55.671Z,7.67
2019-02-25T15:09:28.372Z,8.93
2019-02-25T15:12:15.396Z,8.47
2019-02-25T15:14:46.869Z,9.13
2019-02-25T15:17:37.463Z,7.77
2019-02-25T15:20:12.530Z,9.27
2019-02-25T15:22:46.635Z,8.97
2019-02-25T15:25:29.231Z,9.07
2019-02-25T15:28:11.393Z,9.80
2019-02-25T15:30:43.765Z,9.08
2019-02-25T15:33:16.447Z,9.50
2019-02-25T15:35:50.476Z,9.50
2019-02-25T15:38:24.306Z,9.83
2019-02-25T15:40:58.040Z,9.60
2019-02-25T15:43:29.998Z,10.40
2019-02-25T15:49:31.774Z,10.78
2019-02-25T15:52:05.350Z,10.68
2019-02-25T15:54:41.362Z,11.28
2019-02-25T15:57:12.018Z,11.05
2019-02-25T15:59:43.817Z,11.25
2019-02-25T16:02:16.908Z,11.00
2019-02-25T16:04:56.404Z,11.27
2019-02-25T16:07:29.816Z,10.80
2019-02-25T16:10:18.551Z,11.33
2019-02-25T16:15:26.602Z,10.60
2019-02-25T16:18:04.842Z,11.63
2019-02-25T16:20:36.572Z,29.70
2019-02-25T16:23:09.498Z,10.90
2019-02-25T16:25:41.786Z,11.47
2019-02-25T16:28:15.519Z,11.40
2019-02-25T16:30:51.369Z,11.00
2019-02-25T16:33:28.238Z,10.90
2019-02-25T16:36:01.287Z,11.23
2019-02-25T16:38:36.402Z,11.60
2019-02-25T16:41:32.143Z,11.17
2019-02-25T16:44:02.050Z,10.80
2019-02-25T16:46:46.811Z,11.23
2019-02-25T16:49:22.213Z,11.30
2019-02-25T16:51:55.599Z,11.27
2019-02-25T16:54:29.205Z,11.23
2019-02-25T16:57:01.637Z,11.70
2019-02-25T16:59:35.512Z,11.03
2019-02-25T17:02:08.973Z,11.50
2019-02-25T17:04:41.875Z,10.60
2019-02-25T17:07:16.174Z,11.13
2019-02-25T17:09:56.885Z,15.23
2019-02-25T17:12:40.889Z,11.23
2019-02-25T17:15:13.920Z,10.87
2019-02-25T17:17:45.103Z,11.77
2019-02-25T17:20:17.039Z,11.67
2019-02-25T17:22:48.890Z,12.20
2019-02-25T17:25:43.537Z,11.60
2019-02-25T17:28:19.730Z,13.10
2019-02-25T17:30:49.701Z,11.63
2019-02-25T17:33:20.925Z,10.73
2019-02-25T17:35:53.780Z,11.47
2019-02-25T17:38:28.983Z,10.93
2019-02-25T17:41:08.019Z,12.60
2019-02-25T17:43:40.853Z,12.67
2019-02-25T17:46:15.553Z,11.40
2019-02-25T17:48:46.243Z,10.97
2019-02-25T17:51:18.587Z,11.27
2019-02-25T17:53:54.350Z,10.80
2019-02-25T17:56:26.969Z,10.63
2019-02-25T17:59:01.005Z,10.70
2019-02-25T18:01:34.439Z,11.10
2019-02-25T18:04:09.225Z,10.40
2019-02-25T18:06:42.114Z,10.50
2019-02-25T18:09:16.023Z,10.30
2019-02-25T18:12:10.752Z,12.07
2019-02-25T18:14:47.434Z,10.40
2019-02-25T18:17:21.981Z,10.60
2019-02-25T18:19:56.330Z,12.70
2019-02-25T18:22:33.828Z,14.80
2019-02-25T18:25:05.410Z,13.17
2019-02-25T18:27:39.293Z,10.97
2019-02-25T18:30:13.881Z,10.53
2019-02-25T18:32:45.401Z,10.23
2019-02-25T18:35:19.065Z,9.70
2019-02-25T18:37:51.469Z,9.53
2019-02-25T18:40:22.050Z,8.27
2019-02-25T18:42:55.907Z,9.43
2019-02-25T18:45:27.055Z,8.60
2019-02-25T18:47:58.838Z,8.27
2019-02-25T18:50:31.145Z,7.90
2019-02-25T18:53:02.177Z,7.70
2019-02-25T18:55:34.175Z,7.90
2019-02-25T18:58:07.943Z,8.10
2019-02-25T19:00:44.609Z,7.23
2019-02-25T19:03:14.523Z,8.43
2019-02-25T19:05:46.916Z,10.03
2019-02-25T19:08:22.708Z,7.77
2019-02-25T19:10:57.155Z,7.17
2019-02-25T19:13:31.620Z,7.30
2019-02-25T19:16:02.600Z,7.70
2019-02-25T19:18:36.218Z,7.50
2019-02-25T19:21:08.702Z,6.87
2019-02-25T19:23:41.845Z,6.83
2019-02-25T19:26:13.006Z,6.50
2019-02-25T19:28:47.732Z,6.60
2019-02-25T19:31:16.803Z,7.03
2019-02-25T19:33:47.930Z,7.20
2019-02-25T19:36:25.685Z,6.90
2019-02-25T19:38:55.537Z,6.67
2019-02-25T19:41:34.789Z,7.47
2019-02-25T19:44:08.042Z,6.70
2019-02-25T19:46:42.454Z,6.97
2019-02-25T19:49:26.614Z,7.50
2019-02-25T19:51:59.105Z,7.63
2019-02-25T19:54:34.188Z,7.73
2019-02-25T19:57:02.322Z,6.83
2019-02-25T19:59:34.184Z,6.20
2019-02-25T20:02:06.167Z,6.87
2019-02-25T20:04:37.739Z,8.00
2019-02-25T20:07:13.278Z,7.17
2019-02-25T20:09:45.729Z,6.60
2019-02-25T20:12:20.418Z,6.93
2019-02-25T20:14:50.610Z,6.70
2019-02-25T20:17:26.095Z,6.77
2019-02-25T20:19:55.363Z,6.77
2019-02-25T20:22:26.372Z,6.33
2019-02-25T20:24:57.979Z,6.67
2019-02-25T20:27:28.590Z,6.90
2019-02-25T20:30:00.247Z,6.53
2019-02-25T20:32:34.208Z,6.97
2019-02-25T20:35:05.682Z,6.40
2019-02-25T20:37:36.328Z,6.80
2019-02-25T20:40:08.623Z,7.30
2019-02-25T20:42:40.282Z,6.80
2019-02-25T20:45:14.652Z,7.30
2019-02-25T20:47:46.317Z,7.83
2019-02-25T20:50:24.999Z,7.20
2019-02-25T20:52:58.233Z,7.13
2019-02-25T20:55:31.488Z,7.03
2019-02-25T20:58:01.913Z,7.43
2019-02-25T21:00:34.896Z,7.50
2019-02-25T21:03:04.608Z,9.47
2019-02-25T21:05:35.812Z,7.20
2019-02-25T21:08:06.508Z,7.10
2019-02-25T21:10:37.179Z,7.00
2019-02-25T21:13:08.022Z,6.57
2019-02-25T21:15:41.123Z,6.80
2019-02-25T21:18:28.832Z,6.73
2019-02-25T21:21:00.485Z,6.50
2019-02-25T21:23:32.533Z,6.47
2019-02-25T21:26:06.777Z,6.90
2019-02-25T21:28:42.894Z,7.73
2019-02-25T21:31:14.577Z,6.40
2019-02-25T21:33:50.096Z,6.60
2019-02-25T21:36:20.506Z,6.97
2019-02-25T21:41:52.868Z,6.73
2019-02-25T21:47:20.209Z,6.73
2019-02-25T21:49:52.474Z,6.70
2019-02-25T21:52:30.178Z,7.20
2019-02-25T21:55:04.884Z,6.87
2019-02-25T21:57:37.634Z,7.03
2019-02-25T22:00:10.584Z,6.60
2019-02-25T22:02:45.736Z,6.63
2019-02-25T22:05:17.108Z,6.73
2019-02-25T22:07:57.722Z,6.57
2019-02-25T22:10:29.375Z,6.73
2019-02-25T22:13:04.401Z,6.77
2019-02-25T22:15:34.018Z,6.80
2019-02-25T22:18:08.607Z,8.57
2019-02-25T22:20:42.109Z,6.83
2019-02-25T22:23:12.313Z,8.00
2019-02-25T22:25:42.824Z,7.80
2019-02-25T22:28:13.398Z,7.47
2019-02-25T22:30:45.281Z,7.60
2019-02-25T22:33:27.046Z,7.90
2019-02-25T22:35:51.836Z,7.10
2019-02-25T22:38:23.504Z,7.43
2019-02-25T22:40:55.975Z,7.63
2019-02-25T22:43:28.648Z,7.63
2019-02-25T22:46:02.114Z,7.50
2019-02-25T22:48:32.338Z,7.97
2019-02-25T22:51:04.738Z,6.90
2019-02-25T22:53:34.786Z,7.33
2019-02-25T22:56:09.140Z,7.93
2019-02-25T22:58:39.055Z,7.90
2019-02-25T23:01:17.812Z,6.80
2019-02-25T23:03:52.153Z,7.40
2019-02-25T23:06:21.307Z,6.97
2019-02-25T23:08:53.271Z,7.30
2019-02-25T23:11:26.148Z,8.83
2019-02-25T23:13:56.855Z,7.33
2019-02-25T23:16:26.876Z,6.87
2019-02-25T23:18:58.197Z,7.30
2019-02-25T23:21:31.253Z,6.70
2019-02-25T23:24:02.965Z,7.13
2019-02-25T23:26:34.343Z,6.77
2019-02-25T23:29:04.739Z,6.60
2019-02-25T23:31:35.419Z,6.20
2019-02-25T23:34:08.018Z,6.93
2019-02-25T23:36:42.893Z,7.33
2019-02-25T23:39:17.062Z,6.77
2019-02-25T23:41:46.325Z,7.50
2019-02-25T23:44:19.776Z,6.97
2019-02-25T23:46:55.277Z,7.40
2019-02-25T23:49:27.283Z,6.53
2019-02-25T23:51:55.248Z,7.10
2019-02-25T23:54:27.956Z,7.03
2019-02-25T23:56:59.639Z,7.13
2019-02-25T23:59:29.817Z,7.27
